createdAt,value
2023-02-17T00:00:57.362Z,6.98
2023-02-17T00:06:13.450Z,6.97
2023-02-17T00:08:41.305Z,6.93
2023-02-17T00:11:09.391Z,6.90
2023-02-17T00:13:37.400Z,6.86
2023-02-17T00:16:08.489Z,6.87
2023-02-17T00:18:36.863Z,6.90
2023-02-17T00:21:15.575Z,6.93
2023-02-17T00:23:43.553Z,6.98
2023-02-17T00:26:11.835Z,7.08
2023-02-17T00:28:40.231Z,7.22
2023-02-17T00:31:09.665Z,7.31
2023-02-17T00:33:38.195Z,7.34
2023-02-17T00:36:07.970Z,7.38
2023-02-17T00:38:37.193Z,7.40
2023-02-17T00:41:05.498Z,7.45
2023-02-17T00:43:33.916Z,7.48
2023-02-17T00:46:04.190Z,7.52
2023-02-17T00:48:32.643Z,7.55
2023-02-17T00:51:00.553Z,7.58
2023-02-17T00:53:28.487Z,7.63
2023-02-17T00:55:57.712Z,7.67
2023-02-17T00:58:26.284Z,7.68
2023-02-17T01:00:56.041Z,7.67
2023-02-17T01:03:24.319Z,7.71
2023-02-17T01:05:52.697Z,7.70
2023-02-17T01:08:20.694Z,7.77
2023-02-17T01:10:49.760Z,7.80
2023-02-17T01:13:19.726Z,7.79
2023-02-17T01:15:51.371Z,7.81
2023-02-17T01:18:20.890Z,7.83
2023-02-17T01:20:50.441Z,7.86
2023-02-17T01:23:18.479Z,7.90
2023-02-17T01:25:49.016Z,7.89
2023-02-17T01:28:20.944Z,7.91
2023-02-17T01:30:49.470Z,7.95
2023-02-17T01:33:17.394Z,7.98
2023-02-17T01:35:46.445Z,7.99
2023-02-17T01:38:14.304Z,7.98
2023-02-17T01:40:47.898Z,7.94
2023-02-17T01:43:19.002Z,7.96
2023-02-17T01:45:53.279Z,7.95
2023-02-17T01:48:23.867Z,7.98
2023-02-17T01:50:56.588Z,7.95
2023-02-17T01:53:30.605Z,7.93
2023-02-17T01:55:58.550Z,7.91
2023-02-17T01:58:29.196Z,7.90
2023-02-17T02:01:00.967Z,7.91
2023-02-17T02:03:31.468Z,7.92
2023-02-17T02:06:01.299Z,7.95
2023-02-17T02:08:31.933Z,7.93
2023-02-17T02:10:59.748Z,7.97
2023-02-17T02:13:29.730Z,7.95
2023-02-17T02:16:08.172Z,7.95
2023-02-17T02:18:50.059Z,7.95
2023-02-17T02:21:36.504Z,7.96
2023-02-17T02:24:18.756Z,7.99
2023-02-17T02:27:29.626Z,8.09
2023-02-17T02:30:24.100Z,8.12
2023-02-17T02:33:00.830Z,8.13
2023-02-17T02:35:35.518Z,8.13
2023-02-17T02:38:11.130Z,8.13
2023-02-17T02:40:44.105Z,8.16
2023-02-17T02:43:14.332Z,8.16
2023-02-17T02:45:42.776Z,8.15
2023-02-17T02:48:12.184Z,8.18
2023-02-17T02:51:00.949Z,8.18
2023-02-17T02:53:51.642Z,8.20
2023-02-17T02:56:31.216Z,8.23
2023-02-17T02:59:08.026Z,8.25
2023-02-17T03:01:42.073Z,8.29
2023-02-17T03:04:15.873Z,8.36
2023-02-17T03:06:49.985Z,8.35
2023-02-17T03:09:22.737Z,8.33
2023-02-17T03:11:51.208Z,8.29
2023-02-17T03:14:21.872Z,8.27
2023-02-17T03:16:51.340Z,8.31
2023-02-17T03:19:24.749Z,8.32
2023-02-17T03:21:58.062Z,8.33
2023-02-17T03:24:25.941Z,8.32
2023-02-17T03:26:54.046Z,8.30
2023-02-17T03:29:21.934Z,8.30
2023-02-17T03:31:49.933Z,8.29
2023-02-17T03:34:18.050Z,8.29
2023-02-17T03:36:47.368Z,8.31
2023-02-17T03:39:15.229Z,8.33
2023-02-17T03:41:43.072Z,8.43
2023-02-17T03:44:11.238Z,8.41
2023-02-17T03:46:40.080Z,8.42
2023-02-17T03:49:07.908Z,8.46
2023-02-17T03:51:35.705Z,8.49
2023-02-17T03:54:05.067Z,8.47
2023-02-17T03:56:33.287Z,8.46
2023-02-17T03:59:01.143Z,8.44
2023-02-17T04:01:29.090Z,8.44
2023-02-17T04:03:57.183Z,8.47
2023-02-17T04:06:25.069Z,8.51
2023-02-17T04:08:52.900Z,8.52
2023-02-17T04:11:22.231Z,8.52
2023-02-17T04:13:50.039Z,8.52
2023-02-17T04:16:18.371Z,8.52
2023-02-17T04:18:46.681Z,8.51
2023-02-17T04:21:14.529Z,8.58
2023-02-17T04:23:42.397Z,8.57
2023-02-17T04:26:10.840Z,8.58
2023-02-17T04:28:41.636Z,8.58
2023-02-17T04:31:10.080Z,8.59
2023-02-17T04:33:38.645Z,8.59
2023-02-17T04:36:07.339Z,8.62
2023-02-17T04:38:38.433Z,8.63
2023-02-17T04:41:07.585Z,8.64
2023-02-17T04:43:35.534Z,8.67
2023-02-17T04:46:05.416Z,8.72
2023-02-17T04:48:33.443Z,8.73
2023-02-17T04:51:01.198Z,8.77
2023-02-17T04:53:29.114Z,8.84
2023-02-17T04:55:56.934Z,8.86
2023-02-17T04:58:24.754Z,8.82
2023-02-17T05:00:52.567Z,8.82
2023-02-17T05:03:22.056Z,8.81
2023-02-17T05:05:50.690Z,8.85
2023-02-17T05:08:18.478Z,8.84
2023-02-17T05:10:46.377Z,8.82
2023-02-17T05:13:14.682Z,8.85
2023-02-17T05:15:44.660Z,8.88
2023-02-17T05:18:12.752Z,8.92
2023-02-17T05:20:42.269Z,9.00
2023-02-17T05:23:10.074Z,8.93
2023-02-17T05:25:37.957Z,8.86
2023-02-17T05:28:05.866Z,8.82
2023-02-17T05:30:33.912Z,8.76
2023-02-17T05:33:01.898Z,8.71
2023-02-17T05:35:29.715Z,8.67
2023-02-17T05:37:58.900Z,8.62
2023-02-17T05:40:26.780Z,8.55
2023-02-17T05:42:54.612Z,8.56
2023-02-17T05:45:22.644Z,8.56
2023-02-17T05:47:50.480Z,8.59
2023-02-17T05:50:18.476Z,8.63
2023-02-17T05:52:46.399Z,8.68
2023-02-17T05:55:15.758Z,8.67
2023-02-17T05:57:43.595Z,8.71
2023-02-17T06:00:12.663Z,8.73
2023-02-17T06:02:40.696Z,8.80
2023-02-17T06:05:09.488Z,8.81
2023-02-17T06:07:37.336Z,8.80
2023-02-17T06:10:05.748Z,8.81
2023-02-17T06:12:34.929Z,8.82
2023-02-17T06:15:03.059Z,8.80
2023-02-17T06:17:31.395Z,8.82
2023-02-17T06:19:59.316Z,8.80
2023-02-17T06:22:27.209Z,8.85
2023-02-17T06:24:55.004Z,8.84
2023-02-17T06:27:22.874Z,8.87
2023-02-17T06:29:52.041Z,8.88
2023-02-17T06:32:19.859Z,8.90
2023-02-17T06:34:47.682Z,8.91
2023-02-17T06:37:15.523Z,8.93
2023-02-17T06:39:43.346Z,8.96
2023-02-17T06:42:11.173Z,8.93
2023-02-17T06:44:38.991Z,9.03
2023-02-17T06:47:08.138Z,9.06
2023-02-17T06:49:35.923Z,9.09
2023-02-17T06:52:03.734Z,9.07
2023-02-17T06:54:31.561Z,9.08
2023-02-17T06:56:59.301Z,9.11
2023-02-17T06:59:27.116Z,9.10
2023-02-17T07:01:55.005Z,9.14
2023-02-17T07:04:24.193Z,9.19
2023-02-17T07:06:52.624Z,9.25
2023-02-17T07:09:20.467Z,9.26
2023-02-17T07:11:48.345Z,9.31
2023-02-17T07:14:16.095Z,9.32
2023-02-17T07:16:43.923Z,9.33
2023-02-17T07:19:11.746Z,9.33
2023-02-17T07:21:40.922Z,9.34
2023-02-17T07:24:09.058Z,9.34
2023-02-17T07:26:37.846Z,9.28
2023-02-17T07:29:06.411Z,9.32
2023-02-17T07:31:35.066Z,9.34
2023-02-17T07:34:03.551Z,9.38
2023-02-17T07:36:31.868Z,9.44
2023-02-17T07:39:00.985Z,9.45
2023-02-17T07:41:30.604Z,9.43
2023-02-17T07:43:59.949Z,9.48
2023-02-17T07:46:28.603Z,9.46
2023-02-17T07:48:57.898Z,9.48
2023-02-17T07:51:26.004Z,9.57
2023-02-17T07:53:54.947Z,9.62
2023-02-17T07:56:24.723Z,9.69
2023-02-17T07:58:52.517Z,9.74
2023-02-17T08:01:22.819Z,9.77
2023-02-17T08:03:51.816Z,9.77
2023-02-17T08:06:22.395Z,9.77
2023-02-17T08:09:08.248Z,9.77
2023-02-17T08:11:54.876Z,9.74
2023-02-17T08:14:23.650Z,9.77
2023-02-17T08:16:51.770Z,9.81
2023-02-17T08:19:19.672Z,9.86
2023-02-17T08:21:47.878Z,9.90
2023-02-17T08:24:16.515Z,9.96
2023-02-17T08:26:45.808Z,10.00
2023-02-17T08:29:13.711Z,10.04
2023-02-17T08:31:42.712Z,10.00
2023-02-17T08:34:13.048Z,9.93
2023-02-17T08:36:40.961Z,9.90
2023-02-17T08:39:15.781Z,9.92
2023-02-17T08:41:45.663Z,9.94
2023-02-17T08:44:15.238Z,9.95
2023-02-17T08:46:43.727Z,9.97
2023-02-17T08:49:12.211Z,10.02
2023-02-17T08:51:40.075Z,10.06
2023-02-17T08:54:10.286Z,10.09
2023-02-17T08:56:39.789Z,10.17
2023-02-17T08:59:10.751Z,10.25
2023-02-17T09:01:39.588Z,10.31
2023-02-17T09:04:09.482Z,10.38
2023-02-17T09:06:40.194Z,10.42
2023-02-17T09:09:10.697Z,10.41
2023-02-17T09:11:39.178Z,10.42
2023-02-17T09:14:09.650Z,10.48
2023-02-17T09:16:40.363Z,10.55
2023-02-17T09:19:09.220Z,10.68
2023-02-17T09:21:37.569Z,10.82
2023-02-17T09:24:05.982Z,11.00
2023-02-17T09:26:35.019Z,11.18
2023-02-17T09:29:03.805Z,11.32
2023-02-17T09:31:35.179Z,11.36
2023-02-17T09:34:03.927Z,11.50
2023-02-17T09:36:34.702Z,11.56
2023-02-17T09:39:02.707Z,11.59
2023-02-17T09:41:38.815Z,11.64
2023-02-17T09:44:08.978Z,11.67
2023-02-17T09:46:59.464Z,11.77
2023-02-17T09:49:35.963Z,11.79
2023-02-17T09:52:10.454Z,11.80
2023-02-17T09:54:45.105Z,11.77
2023-02-17T09:57:19.680Z,11.82
2023-02-17T09:59:51.659Z,11.80
2023-02-17T10:02:28.325Z,11.76
2023-02-17T10:05:02.045Z,11.84
2023-02-17T10:07:34.897Z,11.93
2023-02-17T10:10:08.925Z,12.03
2023-02-17T10:12:41.456Z,12.15
2023-02-17T10:15:17.866Z,12.38
2023-02-17T10:17:52.776Z,12.59
2023-02-17T10:20:24.822Z,12.72
2023-02-17T10:22:56.307Z,12.95
2023-02-17T10:25:34.891Z,12.99
2023-02-17T10:28:10.340Z,13.02
2023-02-17T10:30:49.308Z,13.24
2023-02-17T10:33:27.430Z,13.40
2023-02-17T10:36:00.226Z,13.37
2023-02-17T10:38:43.667Z,13.38
2023-02-17T10:41:17.072Z,13.65
2023-02-17T10:43:46.107Z,13.60
2023-02-17T10:46:16.478Z,13.75
2023-02-17T10:48:48.871Z,13.56
2023-02-17T10:51:21.208Z,13.43
2023-02-17T10:53:54.268Z,13.37
2023-02-17T10:56:27.125Z,13.29
2023-02-17T10:59:02.864Z,13.26
2023-02-17T11:01:30.620Z,13.22
2023-02-17T11:04:06.365Z,13.19
2023-02-17T11:06:39.382Z,13.08
2023-02-17T11:09:18.139Z,12.97
2023-02-17T11:11:56.376Z,12.88
2023-02-17T11:14:28.358Z,12.81
2023-02-17T11:16:59.323Z,12.75
2023-02-17T11:19:30.958Z,12.70
2023-02-17T11:22:00.574Z,12.73
2023-02-17T11:24:29.837Z,12.66
2023-02-17T11:27:02.220Z,12.64
2023-02-17T11:29:30.911Z,12.63
2023-02-17T11:32:00.874Z,12.68
2023-02-17T11:34:33.124Z,12.66
2023-02-17T11:37:03.030Z,12.66
2023-02-17T11:39:31.060Z,12.67
2023-02-17T11:41:58.910Z,12.63
2023-02-17T11:44:28.642Z,12.61
2023-02-17T11:47:09.684Z,12.56
2023-02-17T11:49:51.620Z,12.55
2023-02-17T11:52:33.538Z,12.63
2023-02-17T11:55:16.805Z,12.66
2023-02-17T11:57:53.051Z,12.67
2023-02-17T12:00:22.944Z,12.71
2023-02-17T12:03:19.018Z,12.70
2023-02-17T12:06:00.845Z,12.65
2023-02-17T12:08:41.193Z,12.69
2023-02-17T12:11:20.174Z,12.66
2023-02-17T12:14:02.524Z,12.64
2023-02-17T12:16:41.233Z,12.66
2023-02-17T12:19:30.749Z,12.82
2023-02-17T12:22:08.571Z,12.89
2023-02-17T12:24:47.667Z,12.93
2023-02-17T12:27:27.735Z,12.90
2023-02-17T12:30:07.636Z,12.81
2023-02-17T12:32:54.563Z,12.85
2023-02-17T12:35:26.348Z,12.87
2023-02-17T12:37:59.610Z,12.76
2023-02-17T12:40:35.394Z,12.73
2023-02-17T12:43:09.553Z,12.71
2023-02-17T12:45:41.966Z,12.71
2023-02-17T12:48:15.710Z,12.65
2023-02-17T12:50:55.884Z,12.75
2023-02-17T12:53:36.043Z,12.84
2023-02-17T12:56:09.343Z,12.89
2023-02-17T12:58:37.287Z,12.88
2023-02-17T13:01:10.428Z,12.92
2023-02-17T13:03:38.639Z,12.99
2023-02-17T13:06:18.886Z,12.95
2023-02-17T13:08:54.566Z,12.92
2023-02-17T13:11:28.605Z,12.88
2023-02-17T13:13:56.415Z,12.82
2023-02-17T13:16:24.421Z,12.80
2023-02-17T13:18:53.406Z,12.69
2023-02-17T13:21:33.048Z,12.67
2023-02-17T13:24:07.081Z,12.62
2023-02-17T13:26:36.343Z,12.65
2023-02-17T13:29:23.003Z,12.64
2023-02-17T13:31:55.987Z,12.63
2023-02-17T13:34:30.095Z,12.66
2023-02-17T13:37:00.126Z,12.66
2023-02-17T13:39:39.088Z,12.61
2023-02-17T13:42:34.695Z,12.60
2023-02-17T13:45:03.114Z,12.62
2023-02-17T13:47:37.731Z,12.59
2023-02-17T13:50:07.261Z,12.63
2023-02-17T13:52:35.149Z,12.61
2023-02-17T13:55:06.850Z,12.60
2023-02-17T13:57:37.753Z,12.60
2023-02-17T14:00:10.832Z,12.64
2023-02-17T14:02:48.483Z,12.65
2023-02-17T14:05:21.104Z,12.66
2023-02-17T14:07:50.073Z,12.70
2023-02-17T14:10:23.395Z,12.75
2023-02-17T14:12:51.813Z,12.81
2023-02-17T14:15:22.470Z,12.89
2023-02-17T14:17:50.274Z,12.89
2023-02-17T14:20:33.017Z,12.91
2023-02-17T14:23:04.766Z,12.95
2023-02-17T14:25:36.160Z,12.86
2023-02-17T14:28:04.496Z,12.86
2023-02-17T14:30:34.541Z,12.87
2023-02-17T14:33:04.791Z,12.90
2023-02-17T14:35:35.226Z,12.88
2023-02-17T14:38:20.750Z,12.82
2023-02-17T14:40:50.222Z,12.84
2023-02-17T14:43:18.383Z,12.80
2023-02-17T14:45:46.316Z,12.81
2023-02-17T14:48:14.085Z,12.72
2023-02-17T14:50:44.118Z,12.68
2023-02-17T14:53:19.248Z,12.66
2023-02-17T14:55:53.355Z,12.65
2023-02-17T14:58:23.398Z,12.58
2023-02-17T15:00:52.823Z,12.58
2023-02-17T15:03:20.570Z,12.58
2023-02-17T15:05:48.965Z,12.52
2023-02-17T15:08:19.585Z,12.56
2023-02-17T15:10:47.564Z,12.51
2023-02-17T15:13:20.146Z,12.54
2023-02-17T15:15:49.383Z,12.48
2023-02-17T15:18:19.165Z,12.48
2023-02-17T15:20:49.565Z,12.41
2023-02-17T15:23:19.478Z,12.36
2023-02-17T15:25:49.249Z,12.31
2023-02-17T15:28:19.990Z,12.27
2023-02-17T15:30:54.361Z,12.21
2023-02-17T15:33:26.403Z,12.10
2023-02-17T15:35:55.506Z,12.10
2023-02-17T15:38:26.915Z,12.07
2023-02-17T15:40:56.854Z,12.00
2023-02-17T15:46:14.200Z,11.90
2023-02-17T15:48:42.818Z,11.89
2023-02-17T15:51:13.116Z,11.84
2023-02-17T15:53:41.010Z,11.82
2023-02-17T15:56:20.559Z,11.75
2023-02-17T15:58:53.113Z,11.73
2023-02-17T16:01:27.974Z,11.74
2023-02-17T16:03:56.418Z,11.79
2023-02-17T16:06:24.288Z,11.69
2023-02-17T16:08:52.072Z,11.67
2023-02-17T16:11:22.321Z,11.64
2023-02-17T16:13:52.410Z,11.61
2023-02-17T16:16:22.962Z,11.63
2023-02-17T16:18:51.752Z,11.59
2023-02-17T16:21:19.599Z,11.58
2023-02-17T16:23:47.595Z,11.52
2023-02-17T16:26:22.496Z,11.46
2023-02-17T16:28:51.713Z,11.46
2023-02-17T16:31:19.645Z,11.41
2023-02-17T16:33:47.433Z,11.40
2023-02-17T16:36:17.384Z,11.35
2023-02-17T16:38:45.927Z,11.33
2023-02-17T16:41:15.037Z,11.31
2023-02-17T16:43:43.400Z,11.25
2023-02-17T16:46:21.474Z,11.26
2023-02-17T16:48:49.339Z,11.20
2023-02-17T16:51:17.130Z,11.26
2023-02-17T16:53:44.849Z,11.21
2023-02-17T16:56:19.678Z,11.23
2023-02-17T16:58:47.435Z,11.18
2023-02-17T17:01:16.541Z,11.17
2023-02-17T17:03:44.349Z,11.14
2023-02-17T17:06:21.715Z,11.12
2023-02-17T17:08:50.218Z,11.14
2023-02-17T17:11:19.697Z,11.11
2023-02-17T17:13:47.746Z,11.08
2023-02-17T17:16:20.529Z,11.13
2023-02-17T17:18:48.433Z,11.11
2023-02-17T17:21:18.634Z,11.10
2023-02-17T17:23:47.334Z,11.10
2023-02-17T17:26:22.667Z,11.07
2023-02-17T17:28:50.538Z,11.06
2023-02-17T17:31:21.152Z,11.00
2023-02-17T17:33:50.103Z,10.99
2023-02-17T17:36:23.459Z,10.92
2023-02-17T17:38:52.016Z,10.89
2023-02-17T17:41:20.676Z,10.87
2023-02-17T17:43:49.669Z,10.86
2023-02-17T17:46:21.160Z,10.85
2023-02-17T17:48:49.790Z,10.79
2023-02-17T17:51:19.219Z,10.81
2023-02-17T17:53:47.358Z,10.77
2023-02-17T17:56:17.373Z,10.74
2023-02-17T17:58:45.556Z,10.78
2023-02-17T18:01:14.646Z,10.81
2023-02-17T18:03:44.139Z,10.83
2023-02-17T18:06:15.914Z,10.85
2023-02-17T18:08:44.790Z,10.80
2023-02-17T18:11:14.886Z,10.80
2023-02-17T18:13:43.145Z,10.82
2023-02-17T18:16:11.043Z,10.80
2023-02-17T18:18:39.019Z,10.81
2023-02-17T18:21:08.348Z,10.77
2023-02-17T18:23:36.112Z,10.80
2023-02-17T18:26:05.300Z,10.73
2023-02-17T18:28:35.026Z,10.77
2023-02-17T18:31:08.171Z,10.71
2023-02-17T18:33:36.067Z,10.73
2023-02-17T18:36:09.488Z,10.70
2023-02-17T18:38:37.536Z,10.67
2023-02-17T18:41:06.320Z,10.63
2023-02-17T18:43:34.519Z,10.59
2023-02-17T18:46:02.448Z,10.60
2023-02-17T18:48:30.236Z,10.58
2023-02-17T18:50:58.077Z,10.56
2023-02-17T18:53:27.375Z,10.55
2023-02-17T18:55:55.163Z,10.57
2023-02-17T18:58:23.120Z,10.59
2023-02-17T19:00:50.941Z,10.58
2023-02-17T19:03:22.165Z,10.55
2023-02-17T19:05:50.281Z,10.54
2023-02-17T19:08:18.132Z,10.56
2023-02-17T19:10:47.336Z,10.59
2023-02-17T19:13:15.040Z,10.63
2023-02-17T19:15:42.840Z,10.63
2023-02-17T19:18:10.606Z,10.68
2023-02-17T19:20:38.350Z,10.73
2023-02-17T19:23:06.064Z,10.73
2023-02-17T19:25:33.886Z,10.77
2023-02-17T19:28:03.019Z,10.78
2023-02-17T19:30:30.876Z,10.79
2023-02-17T19:32:58.662Z,10.78
2023-02-17T19:35:26.414Z,10.81
2023-02-17T19:37:54.147Z,10.83
2023-02-17T19:40:21.910Z,10.82
2023-02-17T19:42:49.635Z,10.84
2023-02-17T19:45:18.889Z,10.82
2023-02-17T19:47:46.655Z,10.82
2023-02-17T19:50:17.197Z,10.77
2023-02-17T19:52:45.327Z,10.72
2023-02-17T19:55:13.312Z,10.72
2023-02-17T19:57:41.055Z,10.71
2023-02-17T20:00:10.687Z,10.68
2023-02-17T20:02:39.900Z,10.69
2023-02-17T20:05:08.468Z,10.69
2023-02-17T20:07:36.450Z,10.70
2023-02-17T20:10:06.123Z,10.75
2023-02-17T20:12:33.866Z,10.77
2023-02-17T20:15:01.626Z,10.81
2023-02-17T20:17:29.443Z,10.82
2023-02-17T20:19:59.531Z,10.86
2023-02-17T20:22:27.445Z,10.86
2023-02-17T20:24:55.242Z,10.96
2023-02-17T20:27:23.002Z,10.99
2023-02-17T20:29:50.799Z,11.01
2023-02-17T20:32:18.611Z,11.04
2023-02-17T20:34:46.506Z,10.99
2023-02-17T20:37:15.644Z,10.99
2023-02-17T20:39:43.471Z,10.99
2023-02-17T20:42:11.294Z,11.04
2023-02-17T20:44:39.210Z,11.03
2023-02-17T20:47:07.579Z,11.04
2023-02-17T20:49:36.239Z,11.07
2023-02-17T20:52:05.715Z,11.06
2023-02-17T20:54:34.882Z,11.08
2023-02-17T20:57:02.785Z,11.10
2023-02-17T20:59:30.535Z,11.12
2023-02-17T21:01:58.282Z,11.11
2023-02-17T21:04:26.007Z,11.15
2023-02-17T21:06:53.772Z,11.12
2023-02-17T21:09:21.512Z,11.11
2023-02-17T21:11:50.652Z,11.10
2023-02-17T21:14:18.631Z,11.07
2023-02-17T21:16:46.514Z,11.04
2023-02-17T21:19:14.352Z,11.05
2023-02-17T21:21:42.109Z,11.07
2023-02-17T21:24:10.020Z,11.03
2023-02-17T21:26:37.822Z,10.99
2023-02-17T21:29:07.313Z,10.96
2023-02-17T21:31:36.017Z,10.93
2023-02-17T21:34:04.358Z,10.95
2023-02-17T21:36:32.152Z,10.94
2023-02-17T21:38:59.993Z,10.96
2023-02-17T21:41:30.183Z,10.97
2023-02-17T21:44:15.255Z,10.96
2023-02-17T21:46:45.261Z,10.98
2023-02-17T21:49:13.695Z,10.99
2023-02-17T21:51:42.619Z,10.97
2023-02-17T21:54:11.010Z,11.00
2023-02-17T21:56:39.014Z,10.96
2023-02-17T21:59:07.309Z,10.94
2023-02-17T22:01:35.396Z,10.90
2023-02-17T22:04:04.721Z,10.89
2023-02-17T22:06:35.047Z,10.86
2023-02-17T22:09:03.233Z,10.84
2023-02-17T22:11:32.920Z,10.82
2023-02-17T22:14:03.024Z,10.81
2023-02-17T22:16:32.574Z,10.75
2023-02-17T22:19:00.453Z,10.75
2023-02-17T22:21:30.233Z,10.70
2023-02-17T22:23:58.825Z,10.72
2023-02-17T22:26:28.546Z,10.71
2023-02-17T22:28:56.616Z,10.66
2023-02-17T22:31:26.921Z,10.64
2023-02-17T22:33:56.891Z,10.59
2023-02-17T22:36:25.173Z,10.63
2023-02-17T22:38:55.068Z,10.60
2023-02-17T22:41:25.647Z,10.59
2023-02-17T22:43:54.367Z,10.54
2023-02-17T22:46:24.260Z,10.51
2023-02-17T22:48:52.747Z,10.51
2023-02-17T22:51:23.172Z,10.43
2023-02-17T22:53:51.211Z,10.42
2023-02-17T22:56:20.995Z,10.38
2023-02-17T22:58:50.439Z,10.36
2023-02-17T23:01:20.820Z,10.36
2023-02-17T23:03:52.309Z,10.33
2023-02-17T23:06:24.729Z,10.31
2023-02-17T23:08:52.750Z,10.34
2023-02-17T23:11:44.375Z,10.29
2023-02-17T23:14:13.740Z,10.32
2023-02-17T23:16:41.653Z,10.35
2023-02-17T23:19:10.794Z,10.35
2023-02-17T23:21:39.409Z,10.37
2023-02-17T23:24:07.793Z,10.41
2023-02-17T23:26:36.917Z,10.40
2023-02-17T23:29:04.770Z,10.42
2023-02-17T23:31:34.036Z,10.41
2023-02-17T23:34:01.892Z,10.43
2023-02-17T23:36:29.728Z,10.45
2023-02-17T23:38:58.896Z,10.42
2023-02-17T23:41:27.197Z,10.43
2023-02-17T23:43:56.303Z,10.46
2023-02-17T23:46:24.344Z,10.50
2023-02-17T23:48:52.246Z,10.49
2023-02-17T23:51:20.534Z,10.56
2023-02-17T23:53:48.404Z,10.58
2023-02-17T23:56:19.466Z,10.57
2023-02-17T23:58:47.343Z,10.61
